createdAt,value
2022-10-17T00:08:49.575Z,102014.00
2022-10-17T00:19:11.203Z,102011.00
2022-10-17T00:29:34.086Z,101997.00
2022-10-17T00:39:55.772Z,102018.00
2022-10-17T00:50:19.478Z,101996.00
2022-10-17T01:00:42.100Z,102001.00
2022-10-17T01:11:14.519Z,102008.00
2022-10-17T01:21:42.398Z,102006.00
2022-10-17T01:32:10.324Z,101988.00
2022-10-17T01:42:36.757Z,101980.00
2022-10-17T01:53:04.136Z,101980.00
2022-10-17T02:03:29.264Z,101975.00
2022-10-17T02:14:14.405Z,101977.00
2022-10-17T02:24:44.766Z,101986.00
2022-10-17T02:35:15.110Z,101984.00
2022-10-17T02:45:38.809Z,101971.00
2022-10-17T02:56:07.142Z,101966.00
2022-10-17T03:06:28.990Z,101959.00
2022-10-17T03:16:51.800Z,101961.00
2022-10-17T03:27:13.945Z,101968.00
2022-10-17T03:37:36.794Z,101943.00
2022-10-17T03:47:59.678Z,101931.00
2022-10-17T03:58:22.988Z,101933.00
2022-10-17T04:08:45.488Z,101947.00
2022-10-17T04:19:14.062Z,101923.00
2022-10-17T04:29:39.678Z,101930.00
2022-10-17T04:40:11.723Z,101933.00
2022-10-17T04:50:33.544Z,101916.00
2022-10-17T05:01:14.755Z,101920.00
2022-10-17T05:11:37.338Z,101926.00
2022-10-17T05:22:00.849Z,101939.00
2022-10-17T05:32:23.728Z,101928.00
2022-10-17T05:42:50.194Z,101921.00
2022-10-17T05:53:13.366Z,101922.00
2022-10-17T06:03:41.718Z,101942.00
2022-10-17T06:14:05.248Z,101947.00
2022-10-17T06:24:28.176Z,101963.00
2022-10-17T06:35:00.736Z,101980.00
2022-10-17T06:45:24.720Z,101985.00
2022-10-17T06:56:19.596Z,101990.00
2022-10-17T07:07:10.456Z,101990.00
2022-10-17T07:17:36.319Z,101992.00
2022-10-17T07:28:19.171Z,101999.00
2022-10-17T07:38:42.101Z,102013.00
2022-10-17T07:49:06.371Z,102010.00
2022-10-17T07:59:28.682Z,102022.00
2022-10-17T08:09:52.766Z,102022.00
2022-10-17T08:20:14.919Z,102025.00
2022-10-17T08:30:38.832Z,102031.00
2022-10-17T08:41:02.986Z,102011.00
2022-10-17T08:51:33.174Z,102008.00
2022-10-17T09:01:59.727Z,102009.00
2022-10-17T09:12:30.169Z,102013.00
2022-10-17T09:22:58.033Z,102025.00
2022-10-17T09:33:42.195Z,102028.00
2022-10-17T09:44:21.612Z,102025.00
2022-10-17T09:54:47.275Z,102016.00
2022-10-17T10:05:17.958Z,102000.00
2022-10-17T10:15:42.643Z,102006.00
2022-10-17T10:26:12.473Z,102016.00
2022-10-17T10:36:48.401Z,102021.00
2022-10-17T10:47:18.026Z,102009.00
2022-10-17T10:57:41.303Z,102009.00
2022-10-17T11:08:11.563Z,101999.00
2022-10-17T11:18:47.784Z,101999.00
2022-10-17T11:29:12.397Z,101990.00
2022-10-17T11:39:48.520Z,101986.00
2022-10-17T12:01:15.113Z,101971.00
2022-10-17T12:11:46.399Z,101967.00
2022-10-17T12:22:20.738Z,101960.00
2022-10-17T12:33:07.581Z,101969.00
2022-10-17T12:54:16.042Z,101965.00
2022-10-17T13:04:39.417Z,101961.00
2022-10-17T13:15:04.670Z,101955.00
2022-10-17T13:25:28.572Z,101956.00
2022-10-17T13:36:05.705Z,101949.00
2022-10-17T13:46:38.032Z,101960.00
2022-10-17T13:57:00.998Z,101951.00
2022-10-17T14:07:29.281Z,101965.00
2022-10-17T14:17:57.514Z,101976.00
2022-10-17T14:28:23.771Z,101960.00
2022-10-17T14:38:50.998Z,101964.00
2022-10-17T14:49:24.538Z,101981.00
2022-10-17T14:59:55.387Z,101987.00
2022-10-17T15:10:26.721Z,101987.00
2022-10-17T15:20:52.674Z,101989.00
2022-10-17T15:31:24.675Z,102000.00
2022-10-17T15:41:48.028Z,101997.00
2022-10-17T15:52:11.147Z,102004.00
2022-10-17T16:02:33.392Z,101999.00
2022-10-17T16:12:56.222Z,102009.00
2022-10-17T16:23:17.685Z,102006.00
2022-10-17T16:33:40.398Z,102022.00
2022-10-17T16:44:06.907Z,102023.00
2022-10-17T16:54:30.170Z,102018.00
2022-10-17T17:04:51.376Z,102024.00
2022-10-17T17:15:14.052Z,102006.00
2022-10-17T17:25:35.827Z,102015.00
2022-10-17T17:36:01.910Z,102021.00
2022-10-17T17:46:24.973Z,102028.00
2022-10-17T17:56:47.949Z,102026.00
2022-10-17T18:07:09.190Z,102037.00
2022-10-17T18:17:32.313Z,102045.00
2022-10-17T18:27:53.603Z,102069.00
2022-10-17T18:38:16.544Z,102068.00
2022-10-17T18:48:40.967Z,102068.00
2022-10-17T18:59:03.546Z,102070.00
2022-10-17T19:09:24.732Z,102092.00
2022-10-17T19:19:50.032Z,102102.00
2022-10-17T19:30:12.700Z,102114.00
2022-10-17T19:40:35.445Z,102109.00
2022-10-17T19:50:57.078Z,102113.00
2022-10-17T20:01:23.231Z,102121.00
2022-10-17T20:11:44.814Z,102114.00
2022-10-17T20:22:07.365Z,102112.00
2022-10-17T20:32:29.005Z,102125.00
2022-10-17T20:42:52.127Z,102130.00
2022-10-17T21:04:06.208Z,102166.00
2022-10-17T21:14:37.621Z,102162.00
2022-10-17T21:25:00.270Z,102175.00
2022-10-17T21:35:21.449Z,102177.00
2022-10-17T21:45:44.060Z,102169.00
2022-10-17T21:56:08.537Z,102176.00
2022-10-17T22:06:39.836Z,102187.00
2022-10-17T22:17:02.497Z,102196.00
2022-10-17T22:27:25.576Z,102204.00
2022-10-17T22:37:46.913Z,102204.00
2022-10-17T22:48:09.610Z,102201.00
2022-10-17T22:58:32.974Z,102193.00
2022-10-17T23:08:56.083Z,102191.00
2022-10-17T23:19:17.559Z,102205.00
2022-10-17T23:29:40.235Z,102206.00
2022-10-17T23:40:01.685Z,102205.00
2022-10-17T23:50:24.775Z,102210.00
